Time;durP1;ratioP1;P1;durP2;ratioP2;P2;SDS_P1;SDS_P2;PMS_P1;PMS_P2;Temp;Humidity;BMP_temperature;BMP_pressure;BME280_temperature;BME280_humidity;BME280_pressure;Samples;Min_cycle;Max_cycle;Signal;HPM_P1;HPM_P2
2023/12/30 00:00:47;;;;;;;;;;;12.00;90.50;;;;;;5031996;28;19913;-77
2023/12/30 00:03:12;;;;;;;;;;;12.00;90.50;;;;;;5014162;28;19920;-78
2023/12/30 00:05:38;;;;;;;;;;;12.00;90.50;;;;;;5014183;28;19943;-78
2023/12/30 00:08:03;;;;;;;;;;;12.00;90.50;;;;;;5013798;28;20335;-78
2023/12/30 00:10:30;;;;;;;;;;;12.00;90.40;;;;;;5035172;28;19913;-79
2023/12/30 00:12:55;;;;;;;;;;;12.00;90.40;;;;;;5017613;28;19909;-78
2023/12/30 00:15:21;;;;;;;;;;;12.00;90.40;;;;;;5017844;28;19932;-78
2023/12/30 00:17:46;;;;;;;;;;;12.00;90.40;;;;;;5035128;28;19913;-77
2023/12/30 00:20:12;;;;;;;;;;;12.00;90.40;;;;;;5017517;28;19909;-77
2023/12/30 00:22:37;;;;;;;;;;;12.00;90.40;;;;;;5035385;28;19909;-79
2023/12/30 00:25:03;;;;;;;;;;;11.90;90.40;;;;;;5017469;28;19910;-79
2023/12/30 00:27:29;;;;;;;;;;;12.00;90.40;;;;;;5017122;28;19916;-78
2023/12/30 00:29:54;;;;;;;;;;;12.00;90.40;;;;;;5017353;28;19909;-78
2023/12/30 00:32:20;;;;;;;;;;;11.90;90.40;;;;;;5017353;28;19931;-78
2023/12/30 00:34:45;;;;;;;;;;;12.00;90.40;;;;;;5035064;28;19999;-78
2023/12/30 00:37:13;;;;;;;;;;;11.90;90.50;;;;;;5034694;28;19967;-78
2023/12/30 00:39:41;;;;;;;;;;;12.00;90.40;;;;;;5016804;28;19915;-78
2023/12/30 00:42:07;;;;;;;;;;;12.00;90.50;;;;;;5017197;28;20376;-79
2023/12/30 00:44:32;;;;;;;;;;;12.00;90.40;;;;;;5017351;28;19920;-78
2023/12/30 00:46:58;;;;;;;;;;;12.00;90.50;;;;;;5034659;28;19916;-78
2023/12/30 00:49:23;;;;;;;;;;;12.00;90.40;;;;;;5016724;28;19909;-78
2023/12/30 00:51:49;;;;;;;;;;;12.00;90.40;;;;;;5016889;28;19913;-78
2023/12/30 00:54:14;;;;;;;;;;;12.00;90.40;;;;;;5017141;28;19909;-79
2023/12/30 00:56:39;;;;;;;;;;;11.90;90.40;;;;;;5016679;28;19963;-78
2023/12/30 00:59:05;;;;;;;;;;;12.00;90.40;;;;;;5016696;28;19955;-77
2023/12/30 01:01:30;;;;;;;;;;;12.00;90.50;;;;;;5016797;28;19964;-79
2023/12/30 01:03:56;;;;;;;;;;;12.00;90.40;;;;;;5016566;28;19909;-78
2023/12/30 01:06:21;;;;;;;;;;;12.00;90.40;;;;;;5016400;28;19917;-77
2023/12/30 01:08:46;;;;;;;;;;;12.00;90.40;;;;;;5034502;28;19909;-78
2023/12/30 01:11:12;;;;;;;;;;;12.00;90.50;;;;;;5034251;28;19909;-79
2023/12/30 01:13:38;;;;;;;;;;;12.00;90.40;;;;;;5016639;28;20301;-79
2023/12/30 01:16:04;;;;;;;;;;;12.00;90.40;;;;;;5016353;28;19913;-77
2023/12/30 01:18:29;;;;;;;;;;;12.00;90.40;;;;;;5016596;28;19910;-77
2023/12/30 01:20:55;;;;;;;;;;;11.90;90.40;;;;;;5016010;28;19913;-78
2023/12/30 01:23:20;;;;;;;;;;;12.00;90.40;;;;;;5016187;28;20008;-77
2023/12/30 01:25:46;;;;;;;;;;;12.00;90.50;;;;;;5016251;28;20003;-77
2023/12/30 01:28:11;;;;;;;;;;;12.00;90.50;;;;;;5016386;28;19909;-78
2023/12/30 01:30:36;;;;;;;;;;;12.00;90.40;;;;;;5034410;28;19916;-79
2023/12/30 01:33:02;;;;;;;;;;;12.00;90.40;;;;;;5036171;28;19909;-78
2023/12/30 01:35:27;;;;;;;;;;;12.00;90.50;;;;;;5035921;28;20293;-78
2023/12/30 01:37:53;;;;;;;;;;;12.00;90.40;;;;;;5035031;28;20047;-77
2023/12/30 01:40:18;;;;;;;;;;;12.00;90.40;;;;;;5035679;28;19909;-77
2023/12/30 01:42:44;;;;;;;;;;;12.00;90.50;;;;;;5053683;28;20270;-78
2023/12/30 01:45:09;;;;;;;;;;;12.00;90.50;;;;;;5035678;28;19913;-79
2023/12/30 01:47:35;;;;;;;;;;;12.00;90.40;;;;;;5035423;28;20325;-77
2023/12/30 01:50:01;;;;;;;;;;;11.90;90.40;;;;;;5035774;28;19913;-78
2023/12/30 01:52:27;;;;;;;;;;;12.00;90.50;;;;;;5035854;28;19909;-78
2023/12/30 01:54:53;;;;;;;;;;;12.00;90.50;;;;;;5035823;28;19931;-79
2023/12/30 01:57:19;;;;;;;;;;;12.00;90.50;;;;;;5053239;28;19947;-78
2023/12/30 01:59:45;;;;;;;;;;;12.00;90.50;;;;;;5035423;28;19956;-77
2023/12/30 02:02:10;;;;;;;;;;;12.00;90.40;;;;;;5035569;28;19959;-78
2023/12/30 02:04:36;;;;;;;;;;;12.00;90.50;;;;;;5035268;28;20482;-78
2023/12/30 02:07:02;;;;;;;;;;;12.00;90.50;;;;;;5052856;28;19912;-79
2023/12/30 02:09:27;;;;;;;;;;;12.00;90.50;;;;;;5035367;28;19913;-77
2023/12/30 02:11:53;;;;;;;;;;;12.00;90.50;;;;;;5035337;28;19908;-78
2023/12/30 02:14:25;;;;;;;;;;;12.00;90.40;;;;;;5053067;28;20357;-77
2023/12/30 02:16:50;;;;;;;;;;;12.00;90.40;;;;;;5052524;28;19920;-78
2023/12/30 02:19:15;;;;;;;;;;;12.00;90.50;;;;;;5035576;28;19909;-78
2023/12/30 02:21:41;;;;;;;;;;;12.00;90.50;;;;;;5052794;28;20011;-78
2023/12/30 02:24:06;;;;;;;;;;;12.00;90.50;;;;;;5035261;28;20007;-78
2023/12/30 02:26:32;;;;;;;;;;;12.00;90.50;;;;;;5034751;28;19912;-79
2023/12/30 02:28:57;;;;;;;;;;;12.00;90.50;;;;;;5052458;28;19913;-78
2023/12/30 02:31:23;;;;;;;;;;;12.00;90.50;;;;;;5034156;28;20388;-78
2023/12/30 02:33:48;;;;;;;;;;;12.00;90.40;;;;;;5034948;28;20007;-78
2023/12/30 02:36:13;;;;;;;;;;;12.00;90.50;;;;;;5034684;28;19952;-77
2023/12/30 02:38:39;;;;;;;;;;;12.00;90.50;;;;;;5034726;28;20007;-77
2023/12/30 02:41:04;;;;;;;;;;;12.00;90.50;;;;;;5034906;28;19913;-78
2023/12/30 02:43:31;;;;;;;;;;;12.00;90.50;;;;;;5034888;28;19908;-78
2023/12/30 02:45:56;;;;;;;;;;;12.00;90.50;;;;;;5052465;28;19912;-77
2023/12/30 02:48:22;;;;;;;;;;;12.00;90.50;;;;;;5034781;28;20004;-78
2023/12/30 02:50:47;;;;;;;;;;;12.00;90.50;;;;;;5034730;28;20341;-77
2023/12/30 02:53:13;;;;;;;;;;;12.00;90.50;;;;;;5052474;28;19958;-79
2023/12/30 02:55:38;;;;;;;;;;;12.00;90.50;;;;;;5052434;28;19935;-78
2023/12/30 02:58:03;;;;;;;;;;;12.00;90.50;;;;;;5034097;28;20003;-78
2023/12/30 03:00:29;;;;;;;;;;;11.90;90.50;;;;;;5034769;28;19915;-77
2023/12/30 03:02:54;;;;;;;;;;;12.00;90.50;;;;;;5031144;28;19931;-78
2023/12/30 03:05:20;;;;;;;;;;;12.00;90.50;;;;;;5033786;28;20433;-78
2023/12/30 03:07:45;;;;;;;;;;;12.00;90.50;;;;;;5033990;28;19909;-78
2023/12/30 03:10:11;;;;;;;;;;;12.00;90.50;;;;;;5052793;28;19913;-78
2023/12/30 03:12:37;;;;;;;;;;;12.00;90.50;;;;;;5052324;28;20009;-79
2023/12/30 03:15:02;;;;;;;;;;;12.00;90.50;;;;;;5034179;28;19947;-78
2023/12/30 03:17:28;;;;;;;;;;;12.00;90.50;;;;;;5034166;28;20028;-77
2023/12/30 03:19:54;;;;;;;;;;;12.00;90.50;;;;;;5034610;28;19913;-78
2023/12/30 03:22:19;;;;;;;;;;;11.90;90.40;;;;;;5034347;28;19919;-79
2023/12/30 03:24:45;;;;;;;;;;;11.90;90.40;;;;;;5034440;28;19909;-78
2023/12/30 03:27:10;;;;;;;;;;;12.00;90.50;;;;;;5034064;28;19913;-78
2023/12/30 03:29:35;;;;;;;;;;;12.00;90.50;;;;;;5034263;28;19909;-78
2023/12/30 03:32:01;;;;;;;;;;;12.00;90.50;;;;;;5034553;28;19917;-78
2023/12/30 03:34:26;;;;;;;;;;;12.00;90.50;;;;;;5034284;28;19995;-79
2023/12/30 03:36:52;;;;;;;;;;;12.00;90.50;;;;;;5033894;28;19956;-77
2023/12/30 03:39:17;;;;;;;;;;;12.00;90.50;;;;;;5033838;28;19909;-78
2023/12/30 03:41:42;;;;;;;;;;;12.00;90.50;;;;;;5034130;28;19913;-78
2023/12/30 03:44:08;;;;;;;;;;;12.00;90.50;;;;;;5037396;28;19913;-78
2023/12/30 03:46:33;;;;;;;;;;;12.00;90.50;;;;;;5037681;28;19917;-78
2023/12/30 03:48:59;;;;;;;;;;;12.00;90.50;;;;;;5055661;28;19939;-78
2023/12/30 03:51:24;;;;;;;;;;;12.00;90.40;;;;;;5037923;28;19963;-78
2023/12/30 03:53:50;;;;;;;;;;;12.00;90.50;;;;;;5037799;28;19908;-78
2023/12/30 03:56:16;;;;;;;;;;;12.00;90.50;;;;;;5037324;28;19909;-78
2023/12/30 03:58:41;;;;;;;;;;;12.00;90.50;;;;;;5037481;28;19916;-77
2023/12/30 04:01:07;;;;;;;;;;;12.00;90.50;;;;;;5037478;28;19912;-79
2023/12/30 04:03:32;;;;;;;;;;;12.00;90.40;;;;;;5037528;28;19909;-79
2023/12/30 04:05:57;;;;;;;;;;;12.00;90.50;;;;;;5037486;28;19970;-78
2023/12/30 04:08:23;;;;;;;;;;;12.00;90.40;;;;;;5037479;28;19913;-78
2023/12/30 04:10:48;;;;;;;;;;;12.00;90.40;;;;;;5055649;28;20074;-78
2023/12/30 04:13:14;;;;;;;;;;;11.90;90.40;;;;;;5037531;28;20369;-78
2023/12/30 04:15:39;;;;;;;;;;;12.00;90.50;;;;;;5055542;28;19940;-78
2023/12/30 04:18:05;;;;;;;;;;;12.00;90.50;;;;;;5037207;28;19970;-78
2023/12/30 04:20:30;;;;;;;;;;;12.00;90.50;;;;;;5037351;28;19944;-78
2023/12/30 04:22:56;;;;;;;;;;;12.00;90.50;;;;;;5055149;28;19931;-77
2023/12/30 04:25:22;;;;;;;;;;;12.00;90.40;;;;;;5037287;28;19916;-77
2023/12/30 04:27:47;;;;;;;;;;;12.00;90.40;;;;;;5036887;28;19913;-79
2023/12/30 04:30:13;;;;;;;;;;;12.00;90.50;;;;;;5055009;28;20543;-78
2023/12/30 04:32:38;;;;;;;;;;;12.00;90.50;;;;;;5054905;28;19916;-78
2023/12/30 04:35:04;;;;;;;;;;;12.00;90.50;;;;;;5055265;28;20319;-78
2023/12/30 04:37:29;;;;;;;;;;;12.00;90.40;;;;;;5036643;28;19916;-78
2023/12/30 04:39:55;;;;;;;;;;;12.00;90.40;;;;;;5036958;28;19909;-78
2023/12/30 04:42:20;;;;;;;;;;;12.00;90.40;;;;;;5054913;28;19913;-78
2023/12/30 04:44:46;;;;;;;;;;;12.00;90.40;;;;;;5037037;28;19909;-78
2023/12/30 04:47:11;;;;;;;;;;;12.00;90.50;;;;;;5036552;28;20289;-78
2023/12/30 04:49:37;;;;;;;;;;;12.00;90.40;;;;;;5037039;28;20039;-78
2023/12/30 04:52:02;;;;;;;;;;;12.00;90.40;;;;;;5036926;28;20381;-78
2023/12/30 04:54:30;;;;;;;;;;;12.00;90.40;;;;;;5035929;28;19913;-78
2023/12/30 04:56:55;;;;;;;;;;;12.00;90.40;;;;;;5054348;28;19951;-78
2023/12/30 04:59:21;;;;;;;;;;;12.00;90.50;;;;;;5036551;28;19949;-78
2023/12/30 05:01:47;;;;;;;;;;;12.00;90.40;;;;;;5036596;28;20464;-78
2023/12/30 05:04:12;;;;;;;;;;;11.90;90.40;;;;;;5035081;28;20518;-79
2023/12/30 05:06:37;;;;;;;;;;;12.00;90.50;;;;;;5034838;28;20423;-77
2023/12/30 05:09:04;;;;;;;;;;;12.00;90.40;;;;;;5023146;28;19932;-79
2023/12/30 05:11:29;;;;;;;;;;;12.00;90.40;;;;;;5016676;28;19909;-78
2023/12/30 05:13:55;;;;;;;;;;;12.00;90.40;;;;;;5016568;28;19920;-79
2023/12/30 05:16:20;;;;;;;;;;;12.00;90.50;;;;;;5026807;28;19946;-77
2023/12/30 05:18:46;;;;;;;;;;;12.00;90.40;;;;;;5036331;28;19908;-78
2023/12/30 05:21:12;;;;;;;;;;;12.00;90.50;;;;;;5036178;28;19956;-78
2023/12/30 05:23:37;;;;;;;;;;;12.00;90.40;;;;;;5036325;28;19915;-78
2023/12/30 05:26:03;;;;;;;;;;;12.00;90.40;;;;;;5036176;28;19921;-79
2023/12/30 05:28:28;;;;;;;;;;;12.00;90.50;;;;;;5036248;28;20440;-78
2023/12/30 05:30:54;;;;;;;;;;;12.00;90.40;;;;;;5035907;28;19996;-78
2023/12/30 05:33:19;;;;;;;;;;;12.00;90.40;;;;;;5036098;28;19916;-78
2023/12/30 05:35:44;;;;;;;;;;;11.90;90.40;;;;;;5053329;28;20273;-77
2023/12/30 05:38:12;;;;;;;;;;;12.00;90.40;;;;;;5036039;28;19909;-79
2023/12/30 05:40:38;;;;;;;;;;;12.00;90.50;;;;;;5035943;28;19909;-78
2023/12/30 05:43:04;;;;;;;;;;;12.00;90.50;;;;;;5035912;28;20373;-78
2023/12/30 05:45:29;;;;;;;;;;;12.00;90.40;;;;;;5036099;28;19909;-78
2023/12/30 05:47:55;;;;;;;;;;;12.00;90.40;;;;;;5035511;28;20658;-77
2023/12/30 05:50:20;;;;;;;;;;;12.00;90.40;;;;;;5036026;28;20294;-78
2023/12/30 05:52:46;;;;;;;;;;;12.00;90.40;;;;;;5035896;28;19912;-77
2023/12/30 05:55:11;;;;;;;;;;;11.90;90.40;;;;;;5035560;28;19917;-80
2023/12/30 05:57:36;;;;;;;;;;;12.00;90.50;;;;;;5035481;28;19909;-78
2023/12/30 06:00:03;;;;;;;;;;;12.00;90.40;;;;;;5035899;28;19954;-78
2023/12/30 06:02:28;;;;;;;;;;;12.00;90.40;;;;;;5035338;28;19916;-79
2023/12/30 06:04:53;;;;;;;;;;;12.00;90.40;;;;;;5035385;28;20055;-78
2023/12/30 06:07:19;;;;;;;;;;;12.00;90.50;;;;;;5052808;28;20037;-78
2023/12/30 06:09:44;;;;;;;;;;;12.00;90.50;;;;;;5035447;28;19909;-78
2023/12/30 06:12:10;;;;;;;;;;;12.00;90.40;;;;;;5035321;28;19909;-78
2023/12/30 06:14:36;;;;;;;;;;;12.00;90.40;;;;;;5035583;28;19909;-78
2023/12/30 06:17:02;;;;;;;;;;;12.00;90.50;;;;;;5035211;28;19913;-78
2023/12/30 06:19:27;;;;;;;;;;;12.00;90.50;;;;;;5035143;28;19913;-77
2023/12/30 06:21:53;;;;;;;;;;;12.00;90.40;;;;;;5035133;28;19912;-78
2023/12/30 06:24:18;;;;;;;;;;;12.00;90.40;;;;;;5035122;28;19913;-77
2023/12/30 06:26:44;;;;;;;;;;;12.00;90.40;;;;;;5034701;28;19909;-78
2023/12/30 06:29:10;;;;;;;;;;;12.00;90.40;;;;;;5034974;28;19963;-78
2023/12/30 06:31:39;;;;;;;;;;;12.00;90.40;;;;;;5034968;28;19913;-78
2023/12/30 06:34:04;;;;;;;;;;;12.00;90.40;;;;;;5035043;28;20373;-78
2023/12/30 06:36:30;;;;;;;;;;;12.00;90.50;;;;;;5034629;28;19955;-78
2023/12/30 06:38:55;;;;;;;;;;;12.00;90.50;;;;;;5034652;28;19909;-79
2023/12/30 06:41:20;;;;;;;;;;;12.00;90.50;;;;;;5052749;28;19917;-78
2023/12/30 06:43:46;;;;;;;;;;;11.90;90.50;;;;;;5052705;28;19916;-79
2023/12/30 06:46:12;;;;;;;;;;;12.00;90.50;;;;;;5034670;28;19995;-79
2023/12/30 06:48:37;;;;;;;;;;;12.00;90.50;;;;;;5052497;28;19909;-78
2023/12/30 06:51:03;;;;;;;;;;;12.00;90.50;;;;;;5034817;28;19931;-78
2023/12/30 06:53:31;;;;;;;;;;;12.00;90.40;;;;;;5034928;28;19913;-79
2023/12/30 06:56:00;;;;;;;;;;;12.00;90.40;;;;;;5034783;28;19909;-78
2023/12/30 06:58:26;;;;;;;;;;;12.00;90.50;;;;;;5034767;28;19915;-78
2023/12/30 07:00:52;;;;;;;;;;;12.00;90.50;;;;;;5052562;28;19916;-78
2023/12/30 07:03:17;;;;;;;;;;;12.00;90.50;;;;;;5034657;28;20300;-78
2023/12/30 07:05:43;;;;;;;;;;;12.00;90.50;;;;;;5034362;28;19917;-78
2023/12/30 07:08:08;;;;;;;;;;;12.00;90.40;;;;;;5035039;28;20057;-77
2023/12/30 07:10:33;;;;;;;;;;;12.00;90.40;;;;;;5034741;28;20379;-78
2023/12/30 07:12:59;;;;;;;;;;;12.00;90.40;;;;;;5034856;28;19908;-78
2023/12/30 07:15:25;;;;;;;;;;;12.00;90.40;;;;;;5051024;28;19916;-79
2023/12/30 07:17:50;;;;;;;;;;;12.00;90.50;;;;;;5033389;28;19927;-79
2023/12/30 07:20:16;;;;;;;;;;;12.00;90.50;;;;;;5033455;28;19931;-78
2023/12/30 07:22:41;;;;;;;;;;;11.90;90.50;;;;;;5024911;28;20391;-79
2023/12/30 07:25:07;;;;;;;;;;;12.00;90.50;;;;;;5053763;28;19911;-77
2023/12/30 07:27:33;;;;;;;;;;;11.90;90.40;;;;;;5052973;28;19916;-78
2023/12/30 07:29:58;;;;;;;;;;;12.00;90.50;;;;;;5035761;28;19905;-79
2023/12/30 07:32:23;;;;;;;;;;;12.00;90.50;;;;;;5051341;28;19905;-78
2023/12/30 07:34:49;;;;;;;;;;;12.00;90.50;;;;;;5015782;28;19962;-78
2023/12/30 07:37:14;;;;;;;;;;;12.00;90.40;;;;;;5014985;28;19909;-78
2023/12/30 07:39:40;;;;;;;;;;;12.00;90.40;;;;;;5015026;28;19914;-79
2023/12/30 07:42:06;;;;;;;;;;;12.00;90.40;;;;;;5015650;28;19917;-77
2023/12/30 07:44:37;;;;;;;;;;;12.00;90.50;;;;;;5014291;28;19921;-77
2023/12/30 07:47:04;;;;;;;;;;;11.90;90.50;;;;;;5034392;28;19908;-78
2023/12/30 07:49:30;;;;;;;;;;;12.00;90.50;;;;;;5020077;28;20011;-78
2023/12/30 07:51:56;;;;;;;;;;;12.00;90.50;;;;;;5032509;28;20007;-79
2023/12/30 07:54:21;;;;;;;;;;;12.00;90.40;;;;;;5035700;28;19966;-77
2023/12/30 07:56:47;;;;;;;;;;;12.00;90.40;;;;;;5034900;28;19912;-79
2023/12/30 07:59:13;;;;;;;;;;;11.90;90.40;;;;;;5034581;28;19912;-78
2023/12/30 08:01:43;;;;;;;;;;;11.80;90.40;;;;;;5027004;28;20385;-77
2023/12/30 08:04:09;;;;;;;;;;;11.90;90.40;;;;;;5014301;28;19916;-77
2023/12/30 08:06:35;;;;;;;;;;;12.00;90.50;;;;;;5013725;28;20351;-78
2023/12/30 08:09:01;;;;;;;;;;;12.00;90.40;;;;;;5031858;28;19920;-77
2023/12/30 08:11:27;;;;;;;;;;;12.00;90.40;;;;;;5014665;28;19913;-78
2023/12/30 08:13:53;;;;;;;;;;;12.00;90.40;;;;;;5014576;28;19913;-79
2023/12/30 08:16:19;;;;;;;;;;;11.90;90.40;;;;;;5033243;28;19915;-77
2023/12/30 08:18:44;;;;;;;;;;;12.00;90.40;;;;;;5034607;28;20287;-78
2023/12/30 08:21:10;;;;;;;;;;;12.00;90.40;;;;;;5051334;28;19984;-78
2023/12/30 08:23:36;;;;;;;;;;;11.90;90.40;;;;;;5015433;28;19919;-78
2023/12/30 08:26:02;;;;;;;;;;;12.00;90.40;;;;;;5032446;28;19924;-78
2023/12/30 09:10:00;;;;;;;;;;;12.10;90.10;;;;;;5008365;28;19925;-79
2023/12/30 09:12:26;;;;;;;;;;;12.20;90.10;;;;;;4999827;28;19940;-80
2023/12/30 09:15:16;;;;;;;;;;;12.20;90.10;;;;;;4995726;28;20366;-80
2023/12/30 09:18:01;;;;;;;;;;;;;;;;;;;;;
2023/12/30 09:21:02;;;;;;;;;;;12.20;90.00;;;;;;5006822;28;19914;-78
2023/12/30 09:26:45;;;;;;;;;;;12.30;89.90;;;;;;4978927;28;19921;-79
2023/12/30 09:29:24;;;;;;;;;;;12.30;89.70;;;;;;4995081;28;19918;-80
2023/12/30 09:32:21;;;;;;;;;;;12.30;89.60;;;;;;4995650;28;19920;-80
2023/12/30 09:35:02;;;;;;;;;;;12.30;89.60;;;;;;4991324;28;19952;-79
2023/12/30 09:37:28;;;;;;;;;;;12.30;89.50;;;;;;4994828;28;19964;-79
2023/12/30 09:40:08;;;;;;;;;;;12.40;89.50;;;;;;4995076;28;20648;-79
2023/12/30 09:42:34;;;;;;;;;;;12.40;89.40;;;;;;4992664;28;20004;-78
2023/12/30 09:48:37;;;;;;;;;;;12.40;89.20;;;;;;5012644;28;19920;-80
2023/12/30 09:51:14;;;;;;;;;;;12.40;89.20;;;;;;4992813;28;19914;-80
2023/12/30 09:53:51;;;;;;;;;;;12.40;89.20;;;;;;4994498;28;19936;-78
2023/12/30 10:02:57;;;;;;;;;;;12.30;89.30;;;;;;4938017;28;19916;-79
2023/12/30 10:05:42;;;;;;;;;;;12.30;89.40;;;;;;4989597;28;19981;-80
2023/12/30 10:08:13;;;;;;;;;;;12.30;89.30;;;;;;4992091;28;19917;-78
2023/12/30 10:10:44;;;;;;;;;;;12.50;89.50;;;;;;5010950;28;19917;-81
2023/12/30 10:13:10;;;;;;;;;;;12.30;89.40;;;;;;4986811;28;20111;-78
2023/12/30 10:15:37;;;;;;;;;;;12.40;89.50;;;;;;4983053;28;19917;-78
2023/12/30 10:18:04;;;;;;;;;;;12.40;89.50;;;;;;4991495;28;19913;-79
2023/12/30 10:20:30;;;;;;;;;;;12.30;89.40;;;;;;4991190;28;20572;-78
2023/12/30 10:22:55;;;;;;;;;;;12.30;89.50;;;;;;4991035;28;19924;-78
2023/12/30 10:25:21;;;;;;;;;;;12.30;89.50;;;;;;5008818;28;20433;-79
2023/12/30 10:27:48;;;;;;;;;;;12.30;89.50;;;;;;4990911;28;20366;-78
2023/12/30 10:30:19;;;;;;;;;;;12.30;89.40;;;;;;4991788;28;19914;-80
2023/12/30 10:32:46;;;;;;;;;;;12.40;89.40;;;;;;4986209;28;19925;-79
2023/12/30 10:35:11;;;;;;;;;;;12.30;89.80;;;;;;4991448;28;20059;-79
2023/12/30 10:37:37;;;;;;;;;;;12.40;89.40;;;;;;4991083;28;20012;-80
2023/12/30 10:40:05;;;;;;;;;;;12.40;89.40;;;;;;4991050;28;20063;-79
2023/12/30 10:42:30;;;;;;;;;;;12.40;89.40;;;;;;4991749;28;19917;-79
2023/12/30 10:44:56;;;;;;;;;;;12.30;89.40;;;;;;5009207;28;19920;-79
2023/12/30 10:47:22;;;;;;;;;;;12.30;89.50;;;;;;4991358;28;20637;-80
2023/12/30 10:49:54;;;;;;;;;;;12.30;89.60;;;;;;4991325;28;20282;-79
2023/12/30 10:52:24;;;;;;;;;;;12.30;89.60;;;;;;4990657;28;19916;-79
2023/12/30 10:54:54;;;;;;;;;;;12.30;89.60;;;;;;5009046;28;19971;-79
2023/12/30 10:57:20;;;;;;;;;;;12.30;89.60;;;;;;4991166;28;19920;-80
2023/12/30 10:59:49;;;;;;;;;;;12.30;89.70;;;;;;4991160;28;20437;-79
2023/12/30 11:02:15;;;;;;;;;;;12.30;89.70;;;;;;5009052;28;19924;-78
2023/12/30 11:04:41;;;;;;;;;;;12.30;89.70;;;;;;5008698;28;19918;-81
2023/12/30 11:07:10;;;;;;;;;;;12.30;89.70;;;;;;4989833;28;20073;-79
2023/12/30 11:09:36;;;;;;;;;;;12.30;89.70;;;;;;4970985;28;19952;-78
2023/12/30 11:12:01;;;;;;;;;;;12.40;89.60;;;;;;4992927;28;19961;-80
2023/12/30 11:14:27;;;;;;;;;;;12.40;89.60;;;;;;4994012;28;20538;-79
2023/12/30 11:16:55;;;;;;;;;;;12.40;89.70;;;;;;4995266;28;19913;-79
2023/12/30 11:19:26;;;;;;;;;;;12.30;89.60;;;;;;4994967;28;19960;-79
2023/12/30 11:21:54;;;;;;;;;;;12.40;89.60;;;;;;4995166;28;19956;-80
2023/12/30 11:24:20;;;;;;;;;;;12.40;89.40;;;;;;4995400;28;20023;-79
2023/12/30 11:26:45;;;;;;;;;;;12.40;89.20;;;;;;4995115;28;19909;-79
2023/12/30 11:29:12;;;;;;;;;;;12.40;89.20;;;;;;4995215;28;19920;-79
2023/12/30 11:31:40;;;;;;;;;;;12.40;89.20;;;;;;4995357;28;20309;-79
2023/12/30 11:34:05;;;;;;;;;;;12.40;89.10;;;;;;4994838;28;20792;-80
2023/12/30 11:36:31;;;;;;;;;;;12.40;89.10;;;;;;4994791;28;19909;-79
2023/12/30 11:38:58;;;;;;;;;;;12.50;88.80;;;;;;4992120;28;20008;-80
2023/12/30 11:41:23;;;;;;;;;;;12.50;88.70;;;;;;4993599;28;20370;-80
2023/12/30 11:43:49;;;;;;;;;;;12.50;88.70;;;;;;5012424;28;19917;-80
2023/12/30 11:46:14;;;;;;;;;;;12.60;88.70;;;;;;4994675;28;20055;-80
2023/12/30 11:48:43;;;;;;;;;;;12.50;88.80;;;;;;4995085;28;19921;-79
2023/12/30 11:51:09;;;;;;;;;;;12.50;88.90;;;;;;4994971;28;19917;-79
2023/12/30 11:53:35;;;;;;;;;;;12.50;89.50;;;;;;4995039;28;19914;-80
2023/12/30 11:56:01;;;;;;;;;;;12.40;89.00;;;;;;4994628;28;19957;-80
2023/12/30 11:58:28;;;;;;;;;;;12.50;89.10;;;;;;4994725;28;20000;-80
2023/12/30 12:00:54;;;;;;;;;;;12.40;89.20;;;;;;5012494;28;20004;-80
2023/12/30 12:03:19;;;;;;;;;;;12.40;89.30;;;;;;4994810;28;20001;-80
2023/12/30 12:05:45;;;;;;;;;;;12.40;89.40;;;;;;4997862;28;19909;-78
2023/12/30 12:08:11;;;;;;;;;;;12.40;89.50;;;;;;4997781;28;20404;-79
2023/12/30 12:10:36;;;;;;;;;;;12.40;89.50;;;;;;4997964;28;20392;-79
2023/12/30 12:13:03;;;;;;;;;;;12.40;89.50;;;;;;5015773;28;19920;-80
2023/12/30 12:15:28;;;;;;;;;;;12.40;89.60;;;;;;4998218;28;20337;-79
2023/12/30 12:17:55;;;;;;;;;;;12.40;89.60;;;;;;4998041;28;19910;-80
2023/12/30 12:20:21;;;;;;;;;;;12.30;89.60;;;;;;4997724;28;19913;-80
2023/12/30 12:22:52;;;;;;;;;;;12.40;89.70;;;;;;4998015;28;20282;-79
2023/12/30 12:25:19;;;;;;;;;;;12.30;89.60;;;;;;5015792;28;19964;-80
2023/12/30 12:27:44;;;;;;;;;;;12.30;89.60;;;;;;4997653;28;19948;-78
2023/12/30 12:30:10;;;;;;;;;;;12.30;89.60;;;;;;4997979;28;19945;-80
2023/12/30 12:32:36;;;;;;;;;;;12.30;89.60;;;;;;4997799;28;19910;-79
2023/12/30 12:35:01;;;;;;;;;;;12.30;89.60;;;;;;4997774;28;19910;-79
2023/12/30 12:37:27;;;;;;;;;;;12.30;89.70;;;;;;4997478;28;19909;-79
2023/12/30 12:39:53;;;;;;;;;;;12.30;89.70;;;;;;5015268;28;19914;-78
2023/12/30 12:42:18;;;;;;;;;;;12.30;89.70;;;;;;4997720;28;19913;-79
2023/12/30 12:44:43;;;;;;;;;;;12.30;89.80;;;;;;5015411;28;19909;-79
2023/12/30 12:47:09;;;;;;;;;;;12.30;89.80;;;;;;4997323;28;20495;-79
2023/12/30 12:49:35;;;;;;;;;;;12.30;89.80;;;;;;4997362;28;19910;-79
2023/12/30 12:52:00;;;;;;;;;;;12.30;89.90;;;;;;4997356;28;19913;-79
2023/12/30 12:54:26;;;;;;;;;;;12.30;89.90;;;;;;4996995;28;20325;-79
2023/12/30 12:56:51;;;;;;;;;;;12.30;89.90;;;;;;4996843;28;19953;-79
2023/12/30 12:59:17;;;;;;;;;;;12.30;89.90;;;;;;4997123;28;19910;-80
2023/12/30 13:01:44;;;;;;;;;;;12.30;90.00;;;;;;5014795;28;19913;-79
2023/12/30 13:04:09;;;;;;;;;;;12.30;90.00;;;;;;5014688;28;20004;-80
2023/12/30 13:06:35;;;;;;;;;;;12.30;90.00;;;;;;4997328;28;19956;-79
2023/12/30 13:09:08;;;;;;;;;;;12.30;90.00;;;;;;4997248;28;19914;-79
2023/12/30 13:11:36;;;;;;;;;;;12.30;90.00;;;;;;4997394;28;20008;-79
2023/12/30 13:14:06;;;;;;;;;;;12.30;90.00;;;;;;4997235;28;20267;-80
2023/12/30 13:16:34;;;;;;;;;;;12.30;90.00;;;;;;4996064;28;20267;-80
2023/12/30 13:18:59;;;;;;;;;;;12.20;90.00;;;;;;4996549;28;19909;-78
2023/12/30 13:21:25;;;;;;;;;;;12.30;90.00;;;;;;5014623;28;19913;-79
2023/12/30 13:23:50;;;;;;;;;;;12.30;90.00;;;;;;4997004;28;19913;-78
2023/12/30 13:26:18;;;;;;;;;;;12.30;90.00;;;;;;4996557;28;20011;-80
2023/12/30 13:28:43;;;;;;;;;;;12.20;90.00;;;;;;4997063;28;20469;-80
2023/12/30 13:31:09;;;;;;;;;;;12.30;90.00;;;;;;4993122;28;19910;-78
2023/12/30 13:33:35;;;;;;;;;;;12.30;90.00;;;;;;4993399;28;20370;-78
2023/12/30 13:36:05;;;;;;;;;;;12.20;90.00;;;;;;4996591;28;19913;-79
2023/12/30 13:38:36;;;;;;;;;;;12.30;90.00;;;;;;4996949;28;19936;-80
2023/12/30 13:41:04;;;;;;;;;;;12.20;90.00;;;;;;4996745;28;19961;-79
2023/12/30 13:43:29;;;;;;;;;;;12.30;90.00;;;;;;4993616;28;19918;-79
2023/12/30 13:46:04;;;;;;;;;;;12.20;90.00;;;;;;4991951;28;20516;-78
2023/12/30 13:51:16;;;;;;;;;;;12.20;90.10;;;;;;5014158;28;20432;-77
2023/12/30 13:53:42;;;;;;;;;;;12.20;90.10;;;;;;4996164;28;19921;-78
2023/12/30 13:56:11;;;;;;;;;;;12.20;90.00;;;;;;4995945;28;19917;-78
2023/12/30 13:58:37;;;;;;;;;;;12.20;90.10;;;;;;4996258;28;19975;-78
2023/12/30 14:01:04;;;;;;;;;;;12.20;90.10;;;;;;4996127;28;20397;-77
2023/12/30 14:03:30;;;;;;;;;;;12.20;90.10;;;;;;4996045;28;19967;-78
2023/12/30 14:05:55;;;;;;;;;;;12.20;90.10;;;;;;5013478;28;20302;-78
2023/12/30 14:08:36;;;;;;;;;;;12.20;90.10;;;;;;4995927;28;19918;-78
2023/12/30 14:11:07;;;;;;;;;;;12.20;90.10;;;;;;5013541;28;20000;-78
2023/12/30 14:13:33;;;;;;;;;;;12.20;90.10;;;;;;4996140;28;20401;-78
2023/12/30 14:15:58;;;;;;;;;;;12.20;90.10;;;;;;4995453;28;20012;-78
2023/12/30 14:18:23;;;;;;;;;;;12.20;90.30;;;;;;4995850;28;19909;-78
2023/12/30 14:20:49;;;;;;;;;;;12.20;90.10;;;;;;4995288;28;19961;-79
2023/12/30 14:23:14;;;;;;;;;;;12.20;90.10;;;;;;5013160;28;20039;-78
2023/12/30 14:25:40;;;;;;;;;;;12.20;90.10;;;;;;5013431;28;19949;-78
2023/12/30 14:28:05;;;;;;;;;;;12.20;90.10;;;;;;4994354;28;19960;-77
2023/12/30 14:30:32;;;;;;;;;;;12.20;90.20;;;;;;4979862;28;20402;-79
2023/12/30 14:32:57;;;;;;;;;;;12.20;90.20;;;;;;4976483;28;19929;-79
2023/12/30 14:35:23;;;;;;;;;;;12.20;90.20;;;;;;4976739;28;20401;-78
2023/12/30 14:37:48;;;;;;;;;;;12.20;90.20;;;;;;4976297;28;19910;-78
2023/12/30 14:40:15;;;;;;;;;;;12.20;90.20;;;;;;4976602;28;19910;-79
2023/12/30 14:42:44;;;;;;;;;;;12.20;90.20;;;;;;4976492;28;20020;-78
2023/12/30 14:45:10;;;;;;;;;;;12.20;90.20;;;;;;4975972;28;19910;-78
2023/12/30 14:47:36;;;;;;;;;;;12.20;90.20;;;;;;4975957;28;19957;-78
2023/12/30 14:50:02;;;;;;;;;;;12.10;90.20;;;;;;4976086;28;19933;-80
2023/12/30 14:52:28;;;;;;;;;;;12.10;90.20;;;;;;4976143;28;20004;-79
2023/12/30 14:54:53;;;;;;;;;;;12.20;90.20;;;;;;4975684;28;20010;-78
2023/12/30 14:57:18;;;;;;;;;;;12.10;90.20;;;;;;4975849;28;19910;-79
2023/12/30 14:59:44;;;;;;;;;;;12.20;90.30;;;;;;4975716;28;20355;-78
2023/12/30 15:02:09;;;;;;;;;;;12.10;90.20;;;;;;4975858;28;19920;-78
2023/12/30 15:04:35;;;;;;;;;;;12.10;90.20;;;;;;4976223;28;19910;-78
2023/12/30 15:07:00;;;;;;;;;;;12.10;90.20;;;;;;4975601;28;20015;-78
2023/12/30 15:09:26;;;;;;;;;;;12.10;90.20;;;;;;4975734;28;19996;-78
2023/12/30 15:11:51;;;;;;;;;;;12.10;90.20;;;;;;4975991;28;19917;-79